Time;durP1;ratioP1;P1;durP2;ratioP2;P2;SDS_P1;SDS_P2;PMS_P1;PMS_P2;Temp;Humidity;BMP_temperature;BMP_pressure;BME280_temperature;BME280_humidity;BME280_pressure;Samples;Min_cycle;Max_cycle;Signal;HPM_P1;HPM_P2
2022/12/31 00:00:44;;;;;;;81.75;49.85;;;13.80;99.90;;;;;;5044446;28;20064;-71
2022/12/31 00:03:49;;;;;;;72.68;49.47;;;13.70;99.90;;;;;;5033815;28;20044;-70
2022/12/31 00:06:54;;;;;;;74.68;52.25;;;13.60;99.90;;;;;;5033613;28;20056;-70
2022/12/31 00:09:58;;;;;;;74.82;50.85;;;13.70;99.90;;;;;;5033807;28;20405;-70
2022/12/31 00:13:02;;;;;;;78.03;51.65;;;13.60;99.90;;;;;;5044331;28;20053;-70
2022/12/31 00:16:08;;;;;;;75.90;50.03;;;13.60;99.90;;;;;;5033664;28;20064;-69
2022/12/31 00:19:13;;;;;;;76.72;51.17;;;14.50;99.90;;;;;;5033485;28;20045;-69
2022/12/31 00:22:17;;;;;;;74.97;50.42;;;13.50;99.90;;;;;;5033581;28;20073;-69
2022/12/31 00:25:21;;;;;;;74.38;51.90;;;13.50;99.90;;;;;;5033669;28;20044;-69
2022/12/31 00:28:25;;;;;;;77.22;52.70;;;13.50;99.90;;;;;;5033277;28;20060;-70
2022/12/31 00:31:32;;;;;;;79.00;52.42;;;13.40;99.90;;;;;;5033200;28;20053;-70
2022/12/31 00:34:36;;;;;;;87.45;55.08;;;13.30;99.90;;;;;;5033293;28;20049;-70
2022/12/31 00:37:40;;;;;;;76.78;53.38;;;15.40;99.90;;;;;;5033599;28;20389;-70
2022/12/31 00:40:44;;;;;;;82.43;53.80;;;13.20;99.90;;;;;;5033000;28;20056;-70
2022/12/31 00:43:49;;;;;;;82.55;54.22;;;12.20;99.90;;;;;;5032784;28;20144;-70
2022/12/31 00:46:53;;;;;;;83.78;54.38;;;13.10;99.90;;;;;;5033151;28;20056;-70
2022/12/31 00:49:57;;;;;;;74.82;53.97;;;13.10;99.90;;;;;;5033135;28;20040;-70
2022/12/31 00:53:01;;;;;;;75.57;52.70;;;13.20;99.90;;;;;;5033176;28;20045;-70
2022/12/31 00:56:09;;;;;;;84.35;55.83;;;11.00;99.90;;;;;;5032640;28;20048;-69
2022/12/31 00:59:13;;;;;;;82.38;53.80;;;13.20;99.90;;;;;;5032646;28;20052;-70
2022/12/31 01:02:16;;;;;;;84.47;55.00;;;13.10;99.90;;;;;;5032752;28;20044;-70
2022/12/31 01:05:20;;;;;;;73.75;54.13;;;13.20;99.90;;;;;;5032563;28;20064;-70
2022/12/31 01:08:24;;;;;;;86.40;53.50;;;13.20;99.90;;;;;;5032519;28;20045;-70
2022/12/31 01:11:29;;;;;;;74.70;52.58;;;13.30;99.90;;;;;;5032864;28;20060;-70
2022/12/31 01:14:33;;;;;;;77.38;54.00;;;13.20;99.90;;;;;;5032816;28;20514;-70
2022/12/31 01:17:37;;;;;;;78.78;54.22;;;13.20;99.90;;;;;;5032442;28;20044;-70
2022/12/31 01:20:43;;;;;;;83.18;54.58;;;13.20;99.90;;;;;;5032630;28;20517;-70
2022/12/31 01:23:47;;;;;;;79.07;54.70;;;14.40;99.90;;;;;;5032709;28;20060;-70
2022/12/31 01:26:51;;;;;;;73.07;51.10;;;13.30;99.90;;;;;;5032966;28;20052;-70
2022/12/31 01:29:55;;;;;;;79.13;54.33;;;14.50;99.90;;;;;;5032194;28;20036;-69
2022/12/31 01:32:59;;;;;;;86.43;56.10;;;13.70;99.90;;;;;;5032175;28;20544;-69
2022/12/31 01:36:05;;;;;;;76.22;52.67;;;13.20;99.90;;;;;;5042824;28;20057;-70
2022/12/31 01:39:10;;;;;;;79.90;54.05;;;13.10;99.90;;;;;;5031899;28;20053;-70
2022/12/31 01:42:14;;;;;;;76.78;54.55;;;13.40;99.90;;;;;;5031876;28;20047;-70
2022/12/31 01:45:18;;;;;;;82.43;55.72;;;13.10;99.90;;;;;;5032010;28;20045;-70
2022/12/31 01:48:25;;;;;;;83.43;56.22;;;11.90;99.90;;;;;;5031828;28;20052;-70
2022/12/31 01:51:32;;;;;;;78.43;55.65;;;11.60;99.90;;;;;;5031702;28;20504;-70
2022/12/31 01:54:41;;;;;;;72.35;51.10;;;13.00;99.90;;;;;;5031705;28;20045;-70
2022/12/31 01:57:48;;;;;;;78.35;55.30;;;13.10;99.90;;;;;;5031016;28;20053;-70
2022/12/31 02:00:53;;;;;;;81.25;55.70;;;12.80;99.90;;;;;;5031696;28;20045;-70
2022/12/31 02:04:01;;;;;;;78.57;54.08;;;12.80;99.90;;;;;;5031802;28;20056;-70
2022/12/31 02:07:07;;;;;;;75.57;49.85;;;12.20;99.90;;;;;;5031425;28;20037;-70
2022/12/31 02:10:11;;;;;;;72.03;49.40;;;10.70;99.90;;;;;;5031412;28;20048;-70
2022/12/31 02:13:15;;;;;;;74.97;49.83;;;13.00;99.90;;;;;;5031413;28;20049;-70
2022/12/31 02:16:34;;;;;;;65.38;46.15;;;14.30;99.90;;;;;;5031218;28;20048;-70
2022/12/31 02:20:14;;;;;;;75.47;48.58;;;12.90;99.90;;;;;;5030961;28;20044;-69
2022/12/31 02:23:37;;;;;;;70.38;47.60;;;12.80;99.90;;;;;;5031148;28;20076;-70
2022/12/31 02:27:03;;;;;;;75.07;47.67;;;12.80;99.90;;;;;;5031121;28;20044;-70
2022/12/31 02:30:18;;;;;;;66.55;48.70;;;12.80;99.90;;;;;;5031323;28;20401;-70
2022/12/31 02:33:32;;;;;;;81.70;50.97;;;12.80;99.90;;;;;;5031286;28;20211;-70
2022/12/31 02:36:41;;;;;;;70.40;49.25;;;13.00;99.90;;;;;;5031123;28;20048;-70
2022/12/31 02:39:46;;;;;;;75.18;49.97;;;12.90;99.90;;;;;;5031142;28;20052;-68
2022/12/31 02:42:50;;;;;;;80.05;52.60;;;14.10;99.90;;;;;;5030979;28;20052;-69
2022/12/31 02:46:19;;;;;;;80.18;54.90;;;12.60;99.90;;;;;;5031239;28;20393;-69
2022/12/31 02:49:42;;;;;;;75.25;48.95;;;12.80;99.90;;;;;;5030667;28;20040;-69
2022/12/31 02:53:10;;;;;;;72.45;50.58;;;12.80;99.90;;;;;;5031132;28;20044;-69
2022/12/31 02:56:27;;;;;;;74.78;51.42;;;12.90;99.90;;;;;;5030862;28;20373;-68
2022/12/31 03:03:01;;;;;;;68.22;48.88;;;12.60;99.90;;;;;;5031057;28;20048;-69
2022/12/31 03:06:07;;;;;;;65.40;41.50;;;12.70;99.90;;;;;;5030716;28;20056;-70
2022/12/31 03:09:11;;;;;;;68.40;42.22;;;12.40;99.90;;;;;;5033957;28;20040;-70
2022/12/31 03:15:40;;;;;;;61.67;43.10;;;14.90;99.90;;;;;;5034951;28;20044;-69
2022/12/31 03:25:36;;;;;;;57.15;39.05;;;;;;;;;;5034338;28;20052;-69
2022/12/31 03:28:46;;;;;;;57.03;38.13;;;12.60;99.90;;;;;;5034576;28;20044;-69
2022/12/31 03:31:50;;;;;;;51.15;36.55;;;;;;;;;;5034590;28;20113;-69
2022/12/31 03:34:55;;;;;;;61.65;39.75;;;;;;;;;;5034156;28;20048;-70
2022/12/31 03:37:59;;;;;;;46.60;33.17;;;;;;;;;;5034322;28;20052;-69
2022/12/31 03:41:04;;;;;;;49.20;32.05;;;;;;;;;;5034045;28;20116;-70
2022/12/31 03:44:08;;;;;;;40.50;30.83;;;;;;;;;;5034032;28;20052;-69
2022/12/31 03:47:12;;;;;;;46.17;29.55;;;;;;;;;;5034025;28;20044;-68
2022/12/31 03:50:18;;;;;;;52.42;35.22;;;10.10;99.90;;;;;;5034020;28;20041;-68
2022/12/31 03:53:22;;;;;;;48.15;33.00;;;;;;;;;;5034083;28;20053;-70
2022/12/31 03:56:26;;;;;;;43.42;29.95;;;;;;;;;;5033857;28;20505;-68
2022/12/31 03:59:30;;;;;;;41.85;28.83;;;;;;;;;;5033739;28;20044;-69
2022/12/31 04:02:34;;;;;;;44.83;30.23;;;;;;;;;;5033752;28;20508;-69
2022/12/31 04:05:39;;;;;;;43.42;28.45;;;;;;;;;;5033874;28;20393;-69
2022/12/31 04:08:43;;;;;;;45.80;29.20;;;12.40;99.90;;;;;;5033772;28;20500;-69
2022/12/31 04:11:47;;;;;;;47.17;29.00;;;;;;;;;;5034054;28;20060;-68
2022/12/31 04:14:51;;;;;;;45.22;26.75;;;;;;;;;;5033749;28;20054;-69
2022/12/31 04:17:56;;;;;;;48.20;26.38;;;;;;;;;;5033523;28;20040;-69
2022/12/31 04:21:04;;;;;;;40.33;25.90;;;12.20;99.90;;;;;;5032769;28;20505;-70
2022/12/31 04:24:08;;;;;;;39.17;22.77;;;;;;;;;;5034036;28;20057;-70
2022/12/31 04:27:12;;;;;;;32.55;22.05;;;12.20;99.90;;;;;;5033531;28;20036;-69
2022/12/31 04:30:16;;;;;;;33.03;20.85;;;;;;;;;;5033392;28;20052;-70
2022/12/31 04:33:21;;;;;;;35.40;19.73;;;;;;;;;;5033390;28;20036;-70
2022/12/31 04:36:25;;;;;;;35.70;19.38;;;;;;;;;;5033504;28;20040;-69
2022/12/31 04:39:30;;;;;;;32.88;18.30;;;;;;;;;;5033382;28;20041;-69
2022/12/31 04:42:35;;;;;;;26.75;17.73;;;11.20;99.90;;;;;;5033167;28;20053;-69
2022/12/31 04:45:39;;;;;;;34.33;18.25;;;;;;;;;;5033127;28;20040;-70
2022/12/31 04:48:43;;;;;;;30.75;18.50;;;12.50;99.90;;;;;;5033189;28;20045;-70
2022/12/31 04:51:47;;;;;;;28.80;18.33;;;;;;;;;;5032898;28;20404;-69
2022/12/31 04:54:52;;;;;;;27.25;17.80;;;;;;;;;;5032854;28;20044;-69
2022/12/31 04:57:56;;;;;;;27.70;18.05;;;12.20;99.90;;;;;;5032636;28;20052;-70
2022/12/31 05:00:59;;;;;;;31.25;17.75;;;12.20;99.90;;;;;;5032971;28;20500;-69
2022/12/31 05:04:04;;;;;;;30.00;18.38;;;;;;;;;;5032980;28;20045;-70
2022/12/31 05:07:08;;;;;;;32.70;20.08;;;;;;;;;;5032575;28;20504;-68
2022/12/31 05:10:13;;;;;;;35.20;20.05;;;;;;;;;;5032564;28;20390;-68
2022/12/31 05:13:17;;;;;;;30.80;19.70;;;;;;;;;;5032564;28;20044;-68
2022/12/31 05:16:21;;;;;;;33.95;20.10;;;;;;;;;;5032735;28;20045;-69
2022/12/31 05:19:25;;;;;;;33.28;19.25;;;12.10;99.90;;;;;;5032480;28;20044;-70
2022/12/31 05:22:30;;;;;;;33.22;18.67;;;;;;;;;;5042936;28;20052;-70
2022/12/31 05:25:34;;;;;;;26.17;17.38;;;12.20;99.90;;;;;;5032578;28;20045;-68
2022/12/31 05:28:38;;;;;;;29.27;17.17;;;13.20;99.90;;;;;;5032759;28;20116;-69
2022/12/31 05:31:42;;;;;;;31.98;18.10;;;;;;;;;;5031224;28;20519;-69
2022/12/31 05:34:46;;;;;;;38.35;19.88;;;11.90;99.90;;;;;;5032383;28;20049;-69
2022/12/31 05:37:51;;;;;;;34.15;17.67;;;11.90;99.90;;;;;;5031992;28;20499;-69
2022/12/31 05:41:03;;;;;;;28.50;18.27;;;12.00;99.90;;;;;;5032202;28;20056;-68
2022/12/31 05:44:08;;;;;;;33.38;19.25;;;;;;;;;;5032228;28;20057;-69
2022/12/31 05:47:12;;;;;;;31.77;19.50;;;12.10;99.90;;;;;;5031770;28;20036;-69
2022/12/31 05:50:16;;;;;;;36.92;19.20;;;12.00;99.90;;;;;;5031975;28;20052;-68
2022/12/31 05:53:27;;;;;;;32.38;21.08;;;;;;;;;;5068510;28;20382;-68
2022/12/31 05:56:31;;;;;;;37.75;20.45;;;;;;;;;;5068108;28;20390;-69
2022/12/31 05:59:35;;;;;;;38.72;21.40;;;11.50;99.90;;;;;;5068527;28;20070;-68
2022/12/31 06:02:40;;;;;;;38.80;23.15;;;;;;;;;;5068261;28;20056;-70
2022/12/31 06:05:44;;;;;;;45.58;22.90;;;10.40;99.90;;;;;;5068410;28;20489;-70
2022/12/31 06:08:51;;;;;;;39.15;24.35;;;13.30;99.90;;;;;;5068119;28;20043;-70
2022/12/31 06:11:55;;;;;;;40.63;24.60;;;11.40;99.90;;;;;;5067001;28;20052;-69
2022/12/31 06:14:59;;;;;;;38.25;25.13;;;;;;;;;;5067925;28;20397;-70
2022/12/31 06:18:04;;;;;;;45.17;23.65;;;;;;;;;;5067918;28;20049;-70
2022/12/31 06:21:08;;;;;;;51.17;24.83;;;;;;;;;;5067795;28;20488;-69
2022/12/31 06:24:12;;;;;;;58.13;25.13;;;;;;;;;;5067573;28;20400;-69
2022/12/31 06:27:17;;;;;;;63.25;26.83;;;;;;;;;;5067676;28;20041;-69
2022/12/31 06:30:21;;;;;;;51.88;24.88;;;11.80;99.90;;;;;;5067759;28;20036;-68
2022/12/31 06:33:25;;;;;;;48.95;26.42;;;;;;;;;;5067349;28;20060;-68
2022/12/31 06:36:29;;;;;;;52.92;27.73;;;11.90;99.90;;;;;;5067272;28;20060;-68
2022/12/31 06:39:33;;;;;;;55.83;27.45;;;;;;;;;;5067232;28;20052;-69
2022/12/31 06:42:37;;;;;;;49.15;28.52;;;11.90;99.90;;;;;;5067100;28;20049;-70
2022/12/31 06:45:41;;;;;;;51.15;27.15;;;11.80;99.90;;;;;;5066576;28;20531;-69
2022/12/31 06:48:46;;;;;;;53.53;30.38;;;;;;;;;;5067026;28;20063;-70
2022/12/31 06:51:50;;;;;;;45.45;28.00;;;11.70;99.90;;;;;;5066756;28;20056;-69
2022/12/31 06:54:54;;;;;;;46.92;28.88;;;;;;;;;;5067056;28;20056;-70
2022/12/31 06:57:59;;;;;;;47.35;28.63;;;12.00;99.90;;;;;;5067127;28;20049;-69
2022/12/31 07:01:26;;;;;;;50.90;28.25;;;12.00;99.90;;;;;;5067192;28;20063;-69
2022/12/31 07:04:49;;;;;;;48.50;27.48;;;12.00;99.90;;;;;;5055771;28;20052;-70
2022/12/31 07:07:56;;;;;;;44.97;27.58;;;;;;;;;;5053935;28;20076;-70
2022/12/31 07:11:15;;;;;;;54.03;28.95;;;13.80;99.90;;;;;;5053537;28;20037;-71
2022/12/31 07:14:24;;;;;;;48.22;28.08;;;10.30;99.90;;;;;;5053976;28;20542;-69
2022/12/31 07:17:50;;;;;;;55.30;29.58;;;12.30;99.90;;;;;;5053617;28;20052;-70
2022/12/31 07:20:55;;;;;;;50.92;29.33;;;12.30;99.90;;;;;;5053909;28;20385;-70
2022/12/31 07:23:59;;;;;;;49.28;30.55;;;;;;;;;;5053473;28;20048;-70
2022/12/31 07:27:04;;;;;;;44.67;27.85;;;;;;;;;;5053406;28;20041;-71
2022/12/31 07:30:16;;;;;;;51.70;27.63;;;10.70;99.90;;;;;;5052978;28;20408;-70
2022/12/31 07:33:40;;;;;;;45.92;27.08;;;12.60;99.90;;;;;;5052807;28;20056;-70
2022/12/31 07:37:39;;;;;;;43.55;24.30;;;13.60;99.90;;;;;;5052857;28;20044;-70
2022/12/31 07:41:11;;;;;;;44.63;25.58;;;12.90;99.90;;;;;;5050520;28;20099;-69
2022/12/31 07:44:23;;;;;;;;;;;12.90;99.90;;;;;;5051651;28;20040;-69
2022/12/31 07:47:28;;;;;;;36.70;23.48;;;;;;;;;;5053080;28;20281;-69
2022/12/31 07:50:32;;;;;;;39.20;23.83;;;;;;;;;;5052867;28;20037;-69
2022/12/31 07:53:37;;;;;;;40.65;23.83;;;;;;;;;;5052635;28;20045;-69
2022/12/31 07:56:42;;;;;;;37.90;22.88;;;13.40;99.90;;;;;;5052747;28;20041;-69
2022/12/31 07:59:58;;;;;;;38.78;22.15;;;13.40;99.90;;;;;;5052554;28;20440;-69
2022/12/31 08:03:38;;;;;;;39.30;24.00;;;13.60;99.90;;;;;;5052526;28;20044;-68
2022/12/31 08:06:47;;;;;;;57.75;23.83;;;13.80;99.90;;;;;;5052618;28;20036;-69
2022/12/31 08:10:17;;;;;;;39.95;21.52;;;13.90;99.90;;;;;;5051480;28;20060;-68
2022/12/31 08:13:21;;;;;;;35.78;19.85;;;14.30;99.90;;;;;;5052175;28;20502;-68
2022/12/31 08:16:25;;;;;;;39.65;21.13;;;15.70;99.90;;;;;;5051207;28;20044;-69
2022/12/31 08:19:31;;;;;;;34.33;19.90;;;14.40;99.90;;;;;;5052552;28;20286;-69
2022/12/31 08:22:38;;;;;;;32.33;18.98;;;14.40;99.90;;;;;;5052475;28;20044;-68
2022/12/31 08:26:08;;;;;;;28.85;17.42;;;14.60;99.90;;;;;;5052443;28;20052;-68
2022/12/31 08:29:40;;;;;;;33.92;17.42;;;14.80;99.90;;;;;;5052338;28;20040;-68
2022/12/31 08:33:39;;;;;;;27.73;15.80;;;15.00;99.90;;;;;;5051931;28;20417;-68
2022/12/31 08:36:54;;;;;;;27.42;16.33;;;15.10;99.90;;;;;;5051734;28;20064;-67
2022/12/31 08:40:04;;;;;;;25.52;15.52;;;15.30;99.90;;;;;;5052324;28;20408;-68
2022/12/31 08:43:36;;;;;;;29.85;16.00;;;15.50;99.90;;;;;;5051795;28;20056;-68
2022/12/31 08:47:04;;;;;;;32.15;17.15;;;15.80;99.90;;;;;;5051697;28;20055;-68
2022/12/31 08:50:17;;;;;;;26.50;16.10;;;16.10;99.90;;;;;;5051896;28;20047;-67
2022/12/31 08:53:21;;;;;;;25.52;14.30;;;16.20;99.90;;;;;;5051434;28;20060;-67
2022/12/31 08:56:32;;;;;;;27.45;14.23;;;16.40;99.90;;;;;;5051923;28;20044;-67
2022/12/31 08:59:47;;;;;;;24.60;14.75;;;16.60;99.90;;;;;;5052008;28;20060;-67
2022/12/31 09:03:06;;;;;;;27.75;14.98;;;16.60;99.90;;;;;;5051750;28;20044;-69
2022/12/31 09:06:39;;;;;;;32.03;14.70;;;16.90;99.90;;;;;;5051357;28;20044;-69
2022/12/31 09:10:19;;;;;;;32.53;15.18;;;16.90;99.90;;;;;;5051536;28;20056;-68
2022/12/31 09:13:35;;;;;;;26.13;14.40;;;17.00;99.90;;;;;;5051239;28;20511;-69
2022/12/31 09:16:54;;;;;;;25.33;13.38;;;17.00;99.90;;;;;;5051648;28;20408;-68
2022/12/31 09:19:59;;;;;;;25.85;15.85;;;17.10;99.90;;;;;;5051468;28;20052;-69
2022/12/31 09:23:03;;;;;;;32.63;17.67;;;17.30;99.90;;;;;;5051352;28;20040;-69
2022/12/31 09:26:19;;;;;;;30.48;16.13;;;17.50;99.90;;;;;;5051487;28;20056;-67
2022/12/31 09:29:26;;;;;;;28.02;15.05;;;17.70;99.90;;;;;;5050886;28;20044;-68
2022/12/31 09:32:51;;;;;;;32.05;14.68;;;17.80;99.90;;;;;;5050989;28;20052;-69
2022/12/31 09:36:27;;;;;;;24.70;15.52;;;18.00;99.90;;;;;;5051019;28;20056;-68
2022/12/31 09:39:43;;;;;;;26.10;12.85;;;18.20;99.90;;;;;;5050804;28;20322;-69
2022/12/31 09:43:06;;;;;;;27.83;14.13;;;18.40;99.90;;;;;;5050953;28;20040;-69
2022/12/31 09:46:31;;;;;;;28.67;12.10;;;18.60;99.90;;;;;;5051069;28;20056;-69
2022/12/31 09:49:41;;;;;;;16.83;10.13;;;18.80;99.90;;;;;;5050970;28;20047;-68
2022/12/31 09:52:50;;;;;;;27.23;10.95;;;18.90;99.90;;;;;;5050405;28;20048;-68
2022/12/31 09:55:55;;;;;;;30.83;12.68;;;19.00;99.90;;;;;;5050562;28;20040;-70
2022/12/31 09:59:04;;;;;;;29.23;12.23;;;19.20;99.90;;;;;;5049981;28;20039;-68
2022/12/31 10:02:25;;;;;;;19.73;8.65;;;19.20;99.90;;;;;;5050923;28;20048;-68
2022/12/31 10:05:44;;;;;;;19.15;8.75;;;19.30;99.90;;;;;;5050664;28;20087;-69
2022/12/31 10:09:01;;;;;;;16.48;7.95;;;19.40;99.90;;;;;;5050422;28;20069;-71
2022/12/31 10:12:32;;;;;;;15.63;7.60;;;19.40;99.90;;;;;;5050468;28;20052;-69
2022/12/31 10:15:55;;;;;;;17.00;7.50;;;19.00;99.90;;;;;;5050616;28;20116;-69
2022/12/31 10:19:16;;;;;;;22.85;10.40;;;18.80;99.90;;;;;;5050395;28;20511;-69
2022/12/31 10:22:42;;;;;;;17.77;8.85;;;18.90;99.90;;;;;;5050474;28;20048;-68
2022/12/31 10:25:58;;;;;;;21.15;8.77;;;19.10;99.90;;;;;;5050368;28;20057;-68
2022/12/31 10:29:29;;;;;;;18.42;8.90;;;19.30;99.90;;;;;;5050586;28;20393;-68
2022/12/31 10:33:13;;;;;;;20.02;8.05;;;19.20;99.90;;;;;;5050045;28;20048;-68
2022/12/31 10:36:26;;;;;;;18.67;7.25;;;19.00;99.90;;;;;;5050419;28;20056;-67
2022/12/31 10:39:55;;;;;;;14.75;6.60;;;19.00;99.90;;;;;;5052258;28;20051;-68
2022/12/31 10:43:20;;;;;;;21.55;6.80;;;19.20;99.90;;;;;;5053416;28;20064;-68
2022/12/31 10:46:24;;;;;;;18.15;7.57;;;19.30;99.90;;;;;;5053683;28;20044;-68
2022/12/31 10:49:49;;;;;;;18.10;6.68;;;19.50;99.90;;;;;;5053623;28;20051;-68
2022/12/31 10:53:11;;;;;;;16.55;6.50;;;19.60;99.90;;;;;;5053329;28;20418;-68
2022/12/31 10:56:59;;;;;;;17.65;6.80;;;19.70;99.90;;;;;;5053151;28;20052;-68
2022/12/31 11:00:10;;;;;;;22.08;7.80;;;19.70;99.90;;;;;;5052572;28;20040;-68
2022/12/31 11:03:43;;;;;;;18.13;6.85;;;19.90;99.90;;;;;;5052166;28;20127;-68
2022/12/31 11:07:13;;;;;;;14.45;6.47;;;19.90;99.90;;;;;;5052699;28;20048;-68
2022/12/31 11:10:41;;;;;;;16.42;6.38;;;19.90;99.90;;;;;;5053565;28;20052;-68
2022/12/31 11:14:03;;;;;;;12.18;5.80;;;20.00;99.90;;;;;;5052925;28;20056;-69
2022/12/31 11:17:15;;;;;;;10.70;6.13;;;20.00;99.90;;;;;;5053188;28;20048;-68
2022/12/31 11:20:35;;;;;;;17.35;7.25;;;19.90;99.90;;;;;;5052960;28;20040;-69
2022/12/31 11:23:51;;;;;;;14.38;6.63;;;19.90;99.90;;;;;;5053019;28;20048;-68
2022/12/31 11:27:20;;;;;;;12.30;5.63;;;19.90;99.90;;;;;;5053157;28;20508;-68
2022/12/31 11:30:46;;;;;;;16.77;7.07;;;19.80;99.90;;;;;;5052832;28;20052;-68
2022/12/31 11:34:15;;;;;;;14.15;6.18;;;19.70;99.90;;;;;;5053009;28;20063;-68
2022/12/31 11:37:36;;;;;;;12.10;5.78;;;19.60;99.90;;;;;;5052287;28;20421;-68
2022/12/31 11:40:59;;;;;;;10.32;5.30;;;19.60;99.90;;;;;;5053121;28;20060;-67
2022/12/31 11:44:19;;;;;;;12.18;5.45;;;19.50;99.90;;;;;;5053073;28;20385;-67
2022/12/31 11:47:39;;;;;;;13.43;5.82;;;19.50;99.90;;;;;;5052632;28;20040;-68
2022/12/31 11:51:09;;;;;;;9.63;5.32;;;19.40;99.90;;;;;;5052615;28;20055;-67
2022/12/31 11:54:35;;;;;;;10.93;5.27;;;19.30;99.90;;;;;;5051922;28;20053;-68
2022/12/31 11:57:42;;;;;;;13.18;5.57;;;19.30;99.90;;;;;;5051557;28;20044;-68
2022/12/31 12:01:00;;;;;;;16.52;6.72;;;19.20;99.90;;;;;;5052315;28;20384;-69
2022/12/31 12:04:04;;;;;;;22.00;7.70;;;19.20;99.90;;;;;;5052085;28;20491;-68
2022/12/31 12:07:12;;;;;;;18.75;6.72;;;19.10;99.90;;;;;;5052626;28;20048;-69
2022/12/31 12:10:27;;;;;;;18.25;6.07;;;19.00;99.90;;;;;;5052627;28;20055;-69
2022/12/31 12:13:32;;;;;;;14.35;5.75;;;18.90;99.90;;;;;;5052146;28;20412;-69
2022/12/31 12:16:36;;;;;;;12.65;5.40;;;18.90;99.90;;;;;;5052198;28;20044;-69
2022/12/31 12:19:51;;;;;;;11.07;4.60;;;18.90;99.90;;;;;;5052124;28;20044;-69
2022/12/31 12:22:57;;;;;;;9.75;4.97;;;19.00;99.90;;;;;;5052170;28;20048;-70
2022/12/31 12:26:01;;;;;;;11.32;4.90;;;18.90;99.90;;;;;;5051819;28;20041;-68
2022/12/31 12:29:10;;;;;;;15.25;4.97;;;18.90;99.90;;;;;;5051189;28;20040;-69
2022/12/31 12:32:16;;;;;;;23.23;11.57;;;18.80;99.00;;;;;;5051773;28;20032;-68
2022/12/31 12:35:32;;;;;;;20.55;6.80;;;18.80;98.70;;;;;;5052093;28;20052;-67
2022/12/31 12:38:37;;;;;;;9.73;5.40;;;18.70;99.10;;;;;;5051476;28;20040;-68
2022/12/31 12:42:11;;;;;;;14.80;4.85;;;18.70;99.40;;;;;;5051806;28;20428;-67
2022/12/31 12:45:38;;;;;;;13.30;5.22;;;18.80;99.70;;;;;;5051545;28;20044;-68
2022/12/31 12:48:45;;;;;;;9.15;4.03;;;18.80;99.50;;;;;;5051761;28;20048;-67
2022/12/31 12:52:04;;;;;;;13.98;4.75;;;18.80;99.60;;;;;;5051522;28;20048;-68
2022/12/31 12:55:31;;;;;;;25.15;5.35;;;18.70;99.20;;;;;;5050794;28;20044;-68
2022/12/31 12:58:50;;;;;;;11.57;4.22;;;18.70;99.10;;;;;;5051438;28;20409;-67
2022/12/31 13:02:19;;;;;;;18.10;5.30;;;18.60;99.00;;;;;;5050911;28;20036;-68
2022/12/31 13:05:36;;;;;;;10.45;5.20;;;18.60;99.30;;;;;;5050499;28;20044;-68
2022/12/31 13:08:55;;;;;;;9.73;3.85;;;18.60;99.30;;;;;;5051410;28;20051;-69
2022/12/31 13:12:21;;;;;;;15.48;4.28;;;18.60;99.40;;;;;;5051356;28;20040;-69
2022/12/31 13:15:32;;;;;;;12.20;4.15;;;18.60;99.70;;;;;;5051475;28;20056;-69
2022/12/31 13:18:42;;;;;;;9.65;4.13;;;18.60;99.90;;;;;;5049499;28;20123;-68
2022/12/31 13:21:49;;;;;;;15.70;4.60;;;18.50;99.90;;;;;;5050185;28;20495;-68
2022/12/31 13:25:17;;;;;;;15.23;4.93;;;18.50;99.80;;;;;;5050728;28;20048;-68
2022/12/31 13:28:23;;;;;;;12.20;4.32;;;18.50;99.50;;;;;;5050826;28;20039;-68
2022/12/31 13:31:38;;;;;;;9.70;4.20;;;18.40;99.60;;;;;;5050927;28;20211;-68
2022/12/31 13:34:48;;;;;;;16.05;5.90;;;18.40;99.30;;;;;;5050389;28;20047;-69
2022/12/31 13:38:12;;;;;;;12.35;4.57;;;18.40;99.30;;;;;;5050743;28;20040;-69
2022/12/31 13:41:25;;;;;;;13.00;4.80;;;18.40;99.30;;;;;;5050862;28;20047;-69
2022/12/31 13:44:35;;;;;;;12.05;4.63;;;18.30;99.40;;;;;;5050827;28;20062;-69
2022/12/31 13:47:55;;;;;;;16.38;4.72;;;18.30;99.40;;;;;;5050584;28;20396;-69
2022/12/31 13:51:28;;;;;;;12.32;4.25;;;18.30;99.20;;;;;;5051225;28;20320;-69
2022/12/31 13:54:50;;;;;;;9.48;4.00;;;18.30;99.20;;;;;;5050703;28;20051;-69
2022/12/31 13:58:32;;;;;;;8.95;3.47;;;18.20;99.20;;;;;;5051360;28;20392;-68
2022/12/31 14:01:58;;;;;;;9.75;3.90;;;18.20;99.20;;;;;;5050406;28;20036;-69
2022/12/31 14:05:08;;;;;;;10.77;3.53;;;18.20;98.80;;;;;;5050720;28;20070;-69
2022/12/31 14:08:12;;;;;;;11.55;3.60;;;18.20;98.80;;;;;;5050804;28;20048;-69
2022/12/31 14:11:38;;;;;;;11.60;3.95;;;18.10;98.90;;;;;;5050565;28;20511;-69
2022/12/31 14:14:48;;;;;;;11.05;4.07;;;18.10;99.10;;;;;;5053419;28;20060;-69
2022/12/31 14:18:02;;;;;;;14.88;4.60;;;18.10;99.30;;;;;;5054264;28;20052;-69
2022/12/31 14:21:33;;;;;;;9.73;4.07;;;18.10;99.40;;;;;;5054239;28;20511;-69
2022/12/31 14:24:40;;;;;;;9.70;4.60;;;18.10;99.60;;;;;;5053820;28;20048;-69
2022/12/31 14:27:46;;;;;;;15.48;5.15;;;18.10;99.70;;;;;;5054300;28;20499;-69
2022/12/31 14:30:54;;;;;;;12.30;4.43;;;18.00;99.80;;;;;;5054565;28;20039;-69
2022/12/31 14:34:27;;;;;;;13.88;4.95;;;18.00;99.80;;;;;;5054032;28;20048;-68
2022/12/31 14:37:31;;;;;;;13.35;5.78;;;18.00;99.80;;;;;;5053831;28;20044;-69
2022/12/31 14:41:00;;;;;;;12.55;5.95;;;18.00;99.80;;;;;;5054040;28;20063;-69
2022/12/31 14:44:22;;;;;;;21.50;8.30;;;18.00;99.90;;;;;;5054027;28;20499;-69
2022/12/31 14:47:45;;;;;;;32.15;9.18;;;17.90;99.90;;;;;;5053619;28;20039;-69
2022/12/31 14:50:49;;;;;;;22.83;8.65;;;17.90;99.90;;;;;;5053775;28;20040;-68
2022/12/31 14:53:55;;;;;;;16.27;7.38;;;17.90;99.90;;;;;;5053754;28;20475;-68
2022/12/31 14:57:10;;;;;;;18.90;7.47;;;17.90;99.90;;;;;;5053617;28;20392;-68
2022/12/31 15:00:33;;;;;;;21.10;8.23;;;17.80;99.90;;;;;;5053365;28;20040;-68
2022/12/31 15:03:41;;;;;;;24.20;8.20;;;17.80;99.90;;;;;;5053754;28;20055;-68
2022/12/31 15:07:09;;;;;;;23.50;8.88;;;17.70;99.90;;;;;;5053630;28;20055;-68
2022/12/31 15:10:39;;;;;;;22.55;8.20;;;17.70;99.90;;;;;;5053714;28;20056;-68
2022/12/31 15:13:52;;;;;;;17.50;7.15;;;17.60;99.90;;;;;;5053606;28;20055;-68
2022/12/31 15:17:12;;;;;;;19.88;7.50;;;17.60;99.90;;;;;;5053030;28;20048;-68
2022/12/31 15:20:23;;;;;;;30.58;8.65;;;17.60;99.90;;;;;;5053304;28;20048;-68
2022/12/31 15:23:36;;;;;;;22.10;10.07;;;17.50;99.90;;;;;;5053071;28;20052;-68
2022/12/31 15:26:53;;;;;;;40.72;12.10;;;17.50;99.90;;;;;;5053200;28;20048;-68
2022/12/31 15:29:57;;;;;;;25.48;10.52;;;17.50;99.90;;;;;;5053176;28;20112;-68
2022/12/31 15:33:08;;;;;;;32.50;11.82;;;17.40;99.90;;;;;;5053238;28;20056;-68
2022/12/31 15:36:49;;;;;;;33.15;14.43;;;17.30;99.90;;;;;;5052905;28;20503;-68
2022/12/31 15:40:13;;;;;;;28.63;13.77;;;17.20;99.90;;;;;;5053102;28;20063;-69
2022/12/31 15:43:24;;;;;;;30.25;13.50;;;17.10;99.90;;;;;;5052790;28;20036;-68
2022/12/31 15:46:32;;;;;;;33.75;15.57;;;17.10;99.90;;;;;;5052715;28;20048;-69
2022/12/31 15:49:40;;;;;;;29.40;15.80;;;17.10;99.90;;;;;;5052706;28;20508;-68
2022/12/31 15:52:56;;;;;;;33.50;16.13;;;17.00;99.90;;;;;;5052227;28;20059;-68
2022/12/31 15:56:02;;;;;;;42.97;17.25;;;17.00;99.90;;;;;;5052531;28;20060;-68
2022/12/31 15:59:11;;;;;;;44.92;18.33;;;16.80;99.90;;;;;;5052794;28;20047;-68
2022/12/31 16:02:20;;;;;;;52.65;20.15;;;16.70;99.90;;;;;;5052387;28;20059;-68
2022/12/31 16:05:26;;;;;;;57.40;21.17;;;16.70;99.90;;;;;;5052228;28;20044;-68
2022/12/31 16:08:33;;;;;;;43.63;21.50;;;16.60;99.90;;;;;;5052291;28;20043;-68
2022/12/31 16:11:40;;;;;;;47.05;22.92;;;16.60;99.90;;;;;;5052107;28;20048;-68
2022/12/31 16:14:49;;;;;;;50.20;23.33;;;16.50;99.90;;;;;;5052049;28;20122;-68
2022/12/31 16:18:05;;;;;;;57.72;26.52;;;16.50;99.90;;;;;;5051853;28;20068;-68
2022/12/31 16:21:36;;;;;;;58.65;28.73;;;16.40;99.90;;;;;;5052279;28;20063;-68
2022/12/31 16:24:40;;;;;;;73.72;42.80;;;16.40;99.90;;;;;;5052064;28;20052;-68
2022/12/31 16:27:44;;;;;;;83.03;51.47;;;16.40;99.90;;;;;;5051863;28;20036;-68
2022/12/31 16:31:04;;;;;;;82.50;47.72;;;16.40;99.90;;;;;;5052092;28;20075;-68
2022/12/31 16:34:17;;;;;;;82.13;46.95;;;16.30;99.90;;;;;;5051530;28;20072;-68
2022/12/31 16:37:22;;;;;;;85.38;48.55;;;16.20;99.90;;;;;;5050584;28;20044;-68
2022/12/31 16:40:27;;;;;;;85.32;48.90;;;16.20;99.90;;;;;;5051562;28;20048;-68
2022/12/31 16:43:39;;;;;;;77.82;47.92;;;16.10;99.90;;;;;;5051902;28;20060;-68
2022/12/31 16:46:44;;;;;;;74.15;38.13;;;16.10;99.90;;;;;;5051415;28;20048;-68
2022/12/31 16:49:57;;;;;;;83.97;36.20;;;16.00;99.90;;;;;;5051359;28;20099;-68
2022/12/31 16:53:10;;;;;;;79.28;40.72;;;16.00;99.90;;;;;;5051239;28;20051;-68